createdAt,value
2023-05-10T00:01:09.187Z,55.96
2023-05-10T00:04:11.679Z,56.09
2023-05-10T00:07:14.114Z,55.88
2023-05-10T00:10:16.743Z,56.36
2023-05-10T00:13:19.530Z,56.05
2023-05-10T00:16:21.969Z,56.25
2023-05-10T00:19:24.362Z,55.85
2023-05-10T00:22:27.116Z,56.12
2023-05-10T00:25:29.569Z,56.24
2023-05-10T00:28:32.130Z,56.32
2023-05-10T00:31:34.756Z,56.03
2023-05-10T00:34:37.597Z,55.94
2023-05-10T00:37:39.998Z,56.00
2023-05-10T00:40:42.526Z,56.00
2023-05-10T00:43:51.267Z,56.10
2023-05-10T00:46:53.701Z,56.10
2023-05-10T00:49:56.855Z,56.00
2023-05-10T00:53:00.939Z,56.22
2023-05-10T00:56:04.797Z,56.13
2023-05-10T00:59:07.993Z,56.34
2023-05-10T01:02:10.797Z,56.34
2023-05-10T01:05:13.644Z,56.53
2023-05-10T01:08:16.140Z,56.30
2023-05-10T01:11:18.542Z,56.19
2023-05-10T01:14:21.414Z,56.01
2023-05-10T01:17:24.188Z,56.60
2023-05-10T01:20:29.414Z,56.29
2023-05-10T01:24:27.217Z,56.16
2023-05-10T01:27:32.950Z,56.63
2023-05-10T01:30:35.330Z,56.65
2023-05-10T01:33:48.352Z,56.22
2023-05-10T01:37:07.483Z,56.56
2023-05-10T01:40:24.574Z,56.46
2023-05-10T01:43:34.859Z,56.52
2023-05-10T01:46:38.699Z,56.70
2023-05-10T01:49:47.563Z,56.67
2023-05-10T01:52:58.296Z,56.52
2023-05-10T01:56:01.565Z,56.83
2023-05-10T01:59:08.248Z,56.90
2023-05-10T02:02:13.151Z,56.62
2023-05-10T02:05:17.183Z,57.06
2023-05-10T02:08:20.229Z,56.79
2023-05-10T02:11:23.124Z,56.63
2023-05-10T02:14:27.475Z,56.72
2023-05-10T02:17:32.121Z,56.64
2023-05-10T02:20:36.083Z,56.45
2023-05-10T02:23:38.596Z,56.90
2023-05-10T02:26:41.845Z,56.66
2023-05-10T02:29:44.309Z,56.44
2023-05-10T02:32:48.627Z,56.67
2023-05-10T02:35:52.178Z,56.74
2023-05-10T02:38:54.953Z,56.72
2023-05-10T02:41:59.949Z,56.53
2023-05-10T02:45:03.772Z,56.73
2023-05-10T02:48:06.364Z,56.63
2023-05-10T02:51:09.127Z,56.73
2023-05-10T02:54:20.105Z,56.69
2023-05-10T02:57:35.139Z,56.50
2023-05-10T03:00:37.648Z,56.47
2023-05-10T03:03:40.070Z,56.79
2023-05-10T03:06:43.543Z,56.58
2023-05-10T03:09:46.257Z,56.74
2023-05-10T03:12:49.568Z,56.88
2023-05-10T03:16:09.314Z,56.66
2023-05-10T03:19:21.219Z,56.88
2023-05-10T03:22:38.090Z,56.77
2023-05-10T03:25:42.292Z,56.75
2023-05-10T03:28:45.074Z,56.65
2023-05-10T03:31:47.690Z,56.70
2023-05-10T03:34:51.159Z,56.82
2023-05-10T03:37:53.609Z,56.57
2023-05-10T03:40:56.777Z,56.99
2023-05-10T03:43:59.140Z,56.54
2023-05-10T03:47:01.758Z,56.55
2023-05-10T03:50:05.545Z,56.63
2023-05-10T03:53:09.038Z,56.70
2023-05-10T03:56:11.818Z,56.38
2023-05-10T03:59:15.169Z,56.62
2023-05-10T04:02:17.638Z,56.64
2023-05-10T04:05:20.130Z,56.42
2023-05-10T04:08:22.718Z,56.37
2023-05-10T04:11:25.928Z,56.33
2023-05-10T04:14:28.381Z,56.14
2023-05-10T04:17:30.958Z,56.28
2023-05-10T04:20:34.405Z,56.79
2023-05-10T04:23:36.923Z,58.43
2023-05-10T04:26:39.409Z,58.85
2023-05-10T04:29:42.648Z,59.19
2023-05-10T04:32:45.163Z,59.93
2023-05-10T04:35:47.687Z,59.77
2023-05-10T04:38:53.091Z,60.28
2023-05-10T04:41:55.508Z,60.18
2023-05-10T04:44:58.049Z,60.75
2023-05-10T04:48:00.551Z,60.54
2023-05-10T04:51:04.998Z,60.83
2023-05-10T04:54:07.633Z,61.02
2023-05-10T04:57:10.010Z,60.80
2023-05-10T05:00:13.253Z,60.67
2023-05-10T05:03:16.036Z,60.50
2023-05-10T05:06:18.724Z,60.03
2023-05-10T05:09:21.185Z,60.18
2023-05-10T05:12:23.630Z,60.65
2023-05-10T05:15:26.113Z,60.99
2023-05-10T05:18:28.547Z,60.86
2023-05-10T05:21:31.012Z,60.68
2023-05-10T05:24:37.677Z,60.57
2023-05-10T05:27:40.978Z,60.38
2023-05-10T05:30:43.592Z,60.21
2023-05-10T05:33:46.058Z,60.19
2023-05-10T05:36:49.034Z,59.60
2023-05-10T05:39:51.638Z,59.19
2023-05-10T05:42:54.161Z,59.22
2023-05-10T05:45:59.489Z,58.24
2023-05-10T05:49:02.497Z,57.94
2023-05-10T05:52:05.437Z,57.37
2023-05-10T05:55:08.126Z,57.03
2023-05-10T05:58:10.837Z,57.13
2023-05-10T06:01:13.748Z,56.80
2023-05-10T06:04:16.255Z,56.08
2023-05-10T06:07:19.707Z,55.61
2023-05-10T06:10:24.046Z,55.65
2023-05-10T06:13:41.562Z,55.38
2023-05-10T06:17:16.815Z,55.26
2023-05-10T06:20:47.874Z,54.26
2023-05-10T06:23:50.616Z,53.58
2023-05-10T06:26:53.795Z,52.22
2023-05-10T06:30:09.185Z,52.56
2023-05-10T06:33:17.606Z,51.57
2023-05-10T06:36:32.796Z,51.36
2023-05-10T06:39:45.348Z,50.00
2023-05-10T06:42:49.256Z,50.29
2023-05-10T06:45:54.933Z,48.84
2023-05-10T06:48:57.323Z,49.78
2023-05-10T06:51:59.926Z,48.18
2023-05-10T06:55:03.613Z,49.18
2023-05-10T06:58:06.236Z,49.06
2023-05-10T07:01:08.766Z,48.07
2023-05-10T07:04:11.317Z,46.78
2023-05-10T07:07:14.699Z,47.75
2023-05-10T07:10:17.664Z,48.22
2023-05-10T07:13:20.298Z,48.69
2023-05-10T07:16:23.027Z,48.84
2023-05-10T07:19:26.211Z,49.10
2023-05-10T07:22:28.606Z,48.95
2023-05-10T07:25:31.013Z,46.92
2023-05-10T07:28:34.189Z,47.36
2023-05-10T07:31:36.855Z,47.41
2023-05-10T07:34:39.363Z,48.60
2023-05-10T07:37:45.136Z,49.31
2023-05-10T07:40:47.609Z,49.43
2023-05-10T07:43:50.085Z,49.81
2023-05-10T07:46:53.293Z,49.77
2023-05-10T07:49:55.736Z,50.25
2023-05-10T07:53:07.729Z,49.85
2023-05-10T07:56:26.327Z,50.54
2023-05-10T07:59:28.812Z,50.51
2023-05-10T08:02:31.704Z,50.81
2023-05-10T08:05:35.794Z,50.84
2023-05-10T08:08:38.287Z,51.11
2023-05-10T08:11:40.800Z,50.29
2023-05-10T08:14:43.559Z,50.78
2023-05-10T08:17:46.180Z,50.86
2023-05-10T08:20:48.752Z,50.67
2023-05-10T08:23:51.151Z,50.75
2023-05-10T08:26:53.767Z,50.72
2023-05-10T08:29:56.200Z,50.40
2023-05-10T08:32:58.657Z,50.54
2023-05-10T08:36:01.162Z,50.01
2023-05-10T08:39:04.120Z,49.75
2023-05-10T08:42:07.951Z,49.57
2023-05-10T08:45:11.789Z,49.51
2023-05-10T08:48:15.712Z,49.21
2023-05-10T08:51:26.464Z,49.19
2023-05-10T08:54:29.033Z,49.83
2023-05-10T08:57:31.591Z,50.03
2023-05-10T09:00:34.396Z,50.00
2023-05-10T09:03:39.695Z,50.27
2023-05-10T09:06:42.414Z,50.32
2023-05-10T09:09:45.197Z,49.78
2023-05-10T09:12:47.830Z,50.32
2023-05-10T09:15:50.968Z,50.89
2023-05-10T09:18:53.381Z,50.81
2023-05-10T09:21:56.981Z,51.12
2023-05-10T09:25:10.268Z,51.16
2023-05-10T09:28:12.890Z,50.83
2023-05-10T09:31:15.340Z,51.26
2023-05-10T09:34:20.461Z,50.79
2023-05-10T09:37:30.799Z,51.15
2023-05-10T09:40:34.613Z,51.29
2023-05-10T09:43:39.417Z,51.20
2023-05-10T09:46:42.637Z,50.85
2023-05-10T09:49:51.058Z,50.99
2023-05-10T09:53:15.308Z,50.95
2023-05-10T09:56:37.162Z,50.92
2023-05-10T09:59:43.899Z,50.62
2023-05-10T10:02:55.065Z,50.56
2023-05-10T10:05:57.923Z,50.77
2023-05-10T10:09:06.155Z,50.39
2023-05-10T10:12:11.783Z,50.89
2023-05-10T10:15:16.598Z,51.32
2023-05-10T10:18:20.732Z,51.17
2023-05-10T10:21:24.062Z,51.40
2023-05-10T10:24:26.458Z,51.15
2023-05-10T10:27:53.110Z,51.64
2023-05-10T10:30:56.441Z,51.97
2023-05-10T10:34:06.584Z,51.44
2023-05-10T10:37:09.157Z,51.90
2023-05-10T10:40:26.520Z,52.01
2023-05-10T10:43:30.130Z,52.23
2023-05-10T10:46:35.496Z,52.29
2023-05-10T10:49:41.805Z,52.14
2023-05-10T10:52:45.325Z,52.30
2023-05-10T10:55:49.123Z,51.84
2023-05-10T10:58:54.821Z,51.36
2023-05-10T11:01:57.553Z,50.98
2023-05-10T11:05:02.336Z,50.32
2023-05-10T11:08:17.287Z,49.66
2023-05-10T11:11:19.763Z,49.61
2023-05-10T11:14:23.564Z,49.05
2023-05-10T11:17:30.339Z,49.26
2023-05-10T11:20:40.314Z,48.55
2023-05-10T11:23:51.367Z,48.68
2023-05-10T11:26:54.539Z,48.70
2023-05-10T11:29:56.944Z,48.78
2023-05-10T11:32:59.402Z,48.62
2023-05-10T11:36:01.822Z,48.52
2023-05-10T11:39:05.203Z,48.01
2023-05-10T11:42:10.533Z,48.45
2023-05-10T11:45:12.946Z,48.65
2023-05-10T11:48:15.376Z,48.30
2023-05-10T11:51:21.986Z,48.64
2023-05-10T11:54:24.328Z,48.77
2023-05-10T11:57:29.122Z,48.92
2023-05-10T12:00:32.270Z,49.45
2023-05-10T12:03:35.298Z,49.44
2023-05-10T12:06:41.950Z,49.68
2023-05-10T12:09:45.881Z,49.47
2023-05-10T12:12:49.272Z,49.95
2023-05-10T12:15:51.659Z,49.93
2023-05-10T12:18:58.246Z,49.88
2023-05-10T12:22:01.139Z,50.09
2023-05-10T12:25:03.931Z,50.06
2023-05-10T12:28:10.698Z,50.03
2023-05-10T12:31:13.140Z,50.19
2023-05-10T12:34:37.275Z,50.06
2023-05-10T12:37:39.998Z,50.12
2023-05-10T12:40:42.426Z,50.30
2023-05-10T12:43:46.390Z,50.47
2023-05-10T12:46:48.811Z,50.75
2023-05-10T12:49:52.252Z,50.72
2023-05-10T12:52:54.608Z,50.64
2023-05-10T12:55:57.175Z,50.78
2023-05-10T12:58:59.556Z,50.30
2023-05-10T13:02:01.922Z,50.10
2023-05-10T13:05:04.697Z,49.96
2023-05-10T13:08:07.084Z,49.90
2023-05-10T13:11:09.441Z,49.63
2023-05-10T13:14:12.030Z,49.65
2023-05-10T13:17:14.570Z,49.39
2023-05-10T13:20:17.522Z,49.11
2023-05-10T13:23:20.082Z,49.02
2023-05-10T13:26:22.525Z,49.02
2023-05-10T13:29:24.916Z,49.09
2023-05-10T13:32:27.492Z,48.99
2023-05-10T13:35:29.926Z,48.65
2023-05-10T13:38:32.293Z,49.00
2023-05-10T13:41:35.053Z,48.84
2023-05-10T13:44:37.507Z,48.67
2023-05-10T13:47:40.264Z,48.58
2023-05-10T13:50:42.658Z,48.75
2023-05-10T13:53:45.085Z,48.75
2023-05-10T13:56:48.547Z,49.12
2023-05-10T13:59:51.415Z,49.19
2023-05-10T14:02:54.074Z,48.67
2023-05-10T14:05:56.710Z,48.89
2023-05-10T14:08:59.091Z,48.90
2023-05-10T14:12:01.578Z,48.92
2023-05-10T14:15:06.884Z,48.78
2023-05-10T14:18:09.447Z,49.04
2023-05-10T14:21:11.841Z,49.34
2023-05-10T14:24:14.204Z,49.05
2023-05-10T14:27:17.027Z,49.29
2023-05-10T14:30:19.580Z,49.25
2023-05-10T14:33:22.035Z,49.38
2023-05-10T14:36:24.542Z,49.41
2023-05-10T14:39:30.586Z,49.60
2023-05-10T14:42:33.214Z,49.78
2023-05-10T14:45:36.047Z,49.27
2023-05-10T14:48:38.527Z,49.80
2023-05-10T14:51:40.932Z,48.96
2023-05-10T14:54:43.431Z,49.65
2023-05-10T14:57:47.603Z,49.72
2023-05-10T15:00:50.265Z,49.84
2023-05-10T15:03:53.165Z,50.19
2023-05-10T15:07:00.191Z,50.07
2023-05-10T15:10:03.359Z,50.18
2023-05-10T15:13:06.011Z,50.05
2023-05-10T15:16:08.470Z,49.81
2023-05-10T15:19:10.932Z,49.84
2023-05-10T15:22:13.339Z,50.25
2023-05-10T15:25:16.974Z,50.36
2023-05-10T15:28:19.625Z,50.16
2023-05-10T15:31:22.077Z,50.12
2023-05-10T15:34:24.683Z,50.19
2023-05-10T15:37:27.354Z,50.07
2023-05-10T15:40:29.744Z,49.94
2023-05-10T15:43:32.401Z,49.82
2023-05-10T15:46:34.999Z,50.37
2023-05-10T15:49:37.575Z,49.99
2023-05-10T15:52:40.093Z,50.06
2023-05-10T15:55:42.490Z,50.01
2023-05-10T15:58:44.835Z,50.17
2023-05-10T16:01:47.452Z,50.49
2023-05-10T16:04:49.866Z,50.54
2023-05-10T16:07:52.449Z,50.34
2023-05-10T16:10:54.805Z,50.35
2023-05-10T16:13:57.310Z,50.57
2023-05-10T16:16:59.771Z,50.78
2023-05-10T16:20:02.324Z,50.56
2023-05-10T16:23:06.523Z,50.25
2023-05-10T16:26:08.952Z,50.42
2023-05-10T16:29:11.368Z,50.46
2023-05-10T16:32:13.753Z,50.75
2023-05-10T16:35:16.803Z,50.73
2023-05-10T16:38:21.715Z,50.74
2023-05-10T16:41:24.142Z,50.80
2023-05-10T16:44:26.581Z,50.73
2023-05-10T16:47:28.952Z,50.79
2023-05-10T16:50:31.471Z,51.04
2023-05-10T16:53:34.375Z,50.90
2023-05-10T16:56:36.950Z,51.03
2023-05-10T16:59:39.352Z,51.22
2023-05-10T17:02:42.206Z,51.09
2023-05-10T17:05:44.639Z,51.03
2023-05-10T17:08:47.078Z,51.12
2023-05-10T17:11:49.566Z,51.11
2023-05-10T17:14:52.008Z,51.34
2023-05-10T17:17:54.497Z,51.53
2023-05-10T17:20:57.061Z,51.60
2023-05-10T17:23:59.438Z,51.45
2023-05-10T17:27:03.730Z,51.53
2023-05-10T17:30:06.782Z,51.56
2023-05-10T17:33:09.235Z,51.56
2023-05-10T17:36:11.799Z,51.51
2023-05-10T17:39:14.292Z,51.87
2023-05-10T17:42:19.140Z,51.71
2023-05-10T17:45:21.595Z,51.63
2023-05-10T17:48:24.035Z,51.86
2023-05-10T17:51:26.465Z,51.87
2023-05-10T17:54:28.911Z,52.08
2023-05-10T17:57:31.423Z,51.87
2023-05-10T18:00:33.947Z,52.35
2023-05-10T18:03:36.428Z,52.11
2023-05-10T18:06:39.271Z,52.48
2023-05-10T18:09:41.643Z,52.43
2023-05-10T18:12:44.454Z,52.41
2023-05-10T18:15:47.110Z,52.48
2023-05-10T18:18:49.499Z,52.69
2023-05-10T18:21:52.560Z,52.92
2023-05-10T18:24:55.011Z,52.71
2023-05-10T18:27:57.472Z,52.96
2023-05-10T18:31:00.027Z,52.96
2023-05-10T18:34:02.438Z,52.98
2023-05-10T18:37:07.943Z,53.02
2023-05-10T18:40:12.659Z,53.23
2023-05-10T18:43:15.307Z,52.93
2023-05-10T18:46:17.752Z,52.88
2023-05-10T18:49:20.614Z,53.06
2023-05-10T18:52:23.107Z,53.16
2023-05-10T18:55:28.637Z,53.48
2023-05-10T18:58:31.430Z,53.36
2023-05-10T19:01:33.943Z,53.38
2023-05-10T19:04:36.474Z,53.76
2023-05-10T19:07:40.673Z,53.73
2023-05-10T19:10:43.507Z,53.96
2023-05-10T19:13:46.364Z,53.61
2023-05-10T19:16:53.666Z,53.82
2023-05-10T19:19:57.404Z,53.79
2023-05-10T19:23:09.914Z,53.79
2023-05-10T19:26:12.928Z,53.77
2023-05-10T19:29:15.579Z,54.24
2023-05-10T19:32:18.204Z,54.15
2023-05-10T19:35:20.666Z,54.23
2023-05-10T19:38:24.272Z,53.93
2023-05-10T19:41:26.880Z,54.13
2023-05-10T19:44:29.703Z,54.45
2023-05-10T19:47:32.129Z,54.18
2023-05-10T19:50:34.590Z,54.35
2023-05-10T19:53:37.155Z,54.18
2023-05-10T19:56:39.708Z,54.23
2023-05-10T19:59:42.734Z,54.39
2023-05-10T20:02:45.300Z,54.38
2023-05-10T20:05:47.980Z,54.34
2023-05-10T20:08:51.189Z,54.63
2023-05-10T20:11:53.708Z,54.53
2023-05-10T20:14:56.262Z,54.48
2023-05-10T20:17:58.766Z,54.76
2023-05-10T20:21:01.245Z,54.69
2023-05-10T20:24:03.978Z,54.62
2023-05-10T20:27:06.604Z,54.99
2023-05-10T20:30:10.528Z,54.82
2023-05-10T20:33:15.813Z,54.76
2023-05-10T20:36:18.176Z,55.00
2023-05-10T20:39:20.688Z,54.96
2023-05-10T20:42:23.387Z,54.79
2023-05-10T20:45:25.901Z,55.07
2023-05-10T20:48:28.408Z,55.16
2023-05-10T20:51:33.375Z,55.00
2023-05-10T20:54:35.883Z,55.28
2023-05-10T20:57:38.392Z,55.27
2023-05-10T21:00:40.766Z,55.22
2023-05-10T21:03:43.276Z,55.13
2023-05-10T21:06:45.754Z,55.01
2023-05-10T21:09:48.235Z,55.53
2023-05-10T21:12:50.633Z,55.13
2023-05-10T21:15:53.316Z,55.23
2023-05-10T21:18:55.808Z,55.47
2023-05-10T21:22:00.047Z,55.14
2023-05-10T21:25:02.578Z,55.30
2023-05-10T21:28:05.410Z,55.59
2023-05-10T21:31:07.926Z,55.54
2023-05-10T21:34:10.520Z,55.56
2023-05-10T21:37:12.993Z,55.70
2023-05-10T21:40:15.763Z,55.42
2023-05-10T21:43:18.275Z,55.52
2023-05-10T21:46:20.610Z,55.42
2023-05-10T21:49:23.205Z,55.78
2023-05-10T21:52:25.636Z,55.74
2023-05-10T21:55:28.062Z,55.42
2023-05-10T21:58:30.480Z,55.56
2023-05-10T22:01:33.017Z,55.78
2023-05-10T22:04:35.551Z,55.64
2023-05-10T22:07:38.101Z,55.62
2023-05-10T22:10:40.549Z,55.44
2023-05-10T22:13:42.908Z,55.80
2023-05-10T22:16:45.302Z,55.96
2023-05-10T22:19:47.759Z,55.52
2023-05-10T22:22:50.371Z,55.72
2023-05-10T22:25:52.766Z,55.99
2023-05-10T22:28:55.227Z,55.62
2023-05-10T22:31:58.179Z,55.56
2023-05-10T22:35:00.592Z,55.92
2023-05-10T22:38:03.273Z,55.91
2023-05-10T22:41:05.780Z,55.71
2023-05-10T22:44:08.352Z,55.57
2023-05-10T22:47:10.794Z,55.62
2023-05-10T22:50:14.238Z,55.57
2023-05-10T22:53:16.598Z,55.51
2023-05-10T22:56:19.109Z,55.79
2023-05-10T22:59:21.772Z,56.09
2023-05-10T23:02:24.175Z,55.91
2023-05-10T23:05:26.962Z,55.87
2023-05-10T23:08:29.340Z,55.83
2023-05-10T23:11:31.712Z,55.73
2023-05-10T23:14:34.156Z,56.01
2023-05-10T23:17:36.661Z,55.70
2023-05-10T23:20:41.660Z,55.98
2023-05-10T23:23:44.193Z,56.06
2023-05-10T23:26:47.356Z,55.81
2023-05-10T23:29:55.699Z,55.97
2023-05-10T23:32:58.306Z,56.09
2023-05-10T23:36:01.059Z,56.03
2023-05-10T23:39:03.798Z,55.95
2023-05-10T23:42:07.171Z,56.09
2023-05-10T23:45:09.818Z,56.17
2023-05-10T23:48:13.151Z,56.17
2023-05-10T23:51:15.527Z,56.22
2023-05-10T23:54:18.177Z,56.28
2023-05-10T23:57:20.987Z,55.98
